Unicom:                    122.8

AWOS:                  118.275

Elevation           1458’ MSL

TPA:                   2500’ MSL

06/24:         5003’ L   75’ W

PAPI:       06/Left     24/Left

(Operate lights on unicom freq.)

Traffic Pattern: Left

Beacon: Sunset to Sunrise

Windsock: yes, lighted

Segmented Circle: No

 

Cleveland Center: 126.72/291.65

FSS: Altoona

[Source: ADDS]
METAR
KFKL 211156Z AUTO 17005KT 9SM CLR M03/M03 A3020 RMK AO2 SLP244 7//// T10281033 11017 21039 58005 FZRANO =
KFKL 211132Z 2112/2212 17005KT P6SM BKN250 FM211600 18010G18KT P6SM BKN150 FM212300 20014KT P6SM VCSH OVC050 WS020/23040KT FM220300 23014KT P6SM -SHRA OVC025 WS020/24040KT FM220700 26013KT P6SM -SHRA OVC015
TAF
KFKL 211132Z 2112/2212 17005KT P6SM BKN250 FM211600 18010G18KT P6SM BKN150 FM212300 20014KT P6SM VCSH OVC050 WS020/23040KT FM220300 23014KT P6SM -SHRA OVC025 WS020/24040KT FM220700 26013KT P6SM -SHRA OVC015 =
[Source: ADDS]
METAR
KDUJ 211153Z AUTO 10004KT 4SM BR CLR M04/M05 A3019 RMK AO2 SLP243 I6002 T10391050 11011 21039 58002 $ =
KDUJ 211133Z 2112/2212 17005KT P6SM BKN250 TEMPO 2112/2114 5SM BR FM211800 18010KT P6SM BKN150 FM220000 20012KT P6SM VCSH OVC050 WS020/23040KT FM220300 23014KT P6SM -SHRA OVC030 WS020/24040KT FM220700 26013KT P6SM -SHRA OVC015
TAF
KDUJ 211133Z 2112/2212 17005KT P6SM BKN250 TEMPO 2112/2114 5SM BR FM211800 18010KT P6SM BKN150 FM220000 20012KT P6SM VCSH OVC050 WS020/23040KT FM220300 23014KT P6SM -SHRA OVC030 WS020/24040KT FM220700 26013KT P6SM -SHRA OVC015 =

Airport Information. 

Runway Length: 5003ft x 75ft

Runways 6/24

Traffic Pattern: Left

PAPI’s: 2 light PAPI on left of both 6/24

TPA: 2500 msl

Field Elevation: 1458 msl

Surface: Asphalt

Beacon: Operates Sunset-Sunrise

Pilot Controlled Lighting:  yes 122.8

 

Fuel:

Jet-A w/prist

100 LL

Center point fueling available upon request.

 

Unicom Frequency: 122.8

AWOS Frequency: 118.27  (814-227-2899)

 

Cleveland Center: 126.72 (440-774-0442)

 

GPS Approach Plates for 6/24 download here: http://www.airnav.com/airport/KAXQ

[Source: ADDS]
METAR
KFKL 211156Z AUTO 17005KT 9SM CLR M03/M03 A3020 RMK AO2 SLP244 7//// T10281033 11017 21039 58005 FZRANO =
KFKL 211132Z 2112/2212 17005KT P6SM BKN250 FM211600 18010G18KT P6SM BKN150 FM212300 20014KT P6SM VCSH OVC050 WS020/23040KT FM220300 23014KT P6SM -SHRA OVC025 WS020/24040KT FM220700 26013KT P6SM -SHRA OVC015
TAF
KFKL 211132Z 2112/2212 17005KT P6SM BKN250 FM211600 18010G18KT P6SM BKN150 FM212300 20014KT P6SM VCSH OVC050 WS020/23040KT FM220300 23014KT P6SM -SHRA OVC025 WS020/24040KT FM220700 26013KT P6SM -SHRA OVC015 =
[Source: ADDS]
METAR
KDUJ 211153Z AUTO 10004KT 4SM BR CLR M04/M05 A3019 RMK AO2 SLP243 I6002 T10391050 11011 21039 58002 $ =
KDUJ 211133Z 2112/2212 17005KT P6SM BKN250 TEMPO 2112/2114 5SM BR FM211800 18010KT P6SM BKN150 FM220000 20012KT P6SM VCSH OVC050 WS020/23040KT FM220300 23014KT P6SM -SHRA OVC030 WS020/24040KT FM220700 26013KT P6SM -SHRA OVC015
TAF
KDUJ 211133Z 2112/2212 17005KT P6SM BKN250 TEMPO 2112/2114 5SM BR FM211800 18010KT P6SM BKN150 FM220000 20012KT P6SM VCSH OVC050 WS020/23040KT FM220300 23014KT P6SM -SHRA OVC030 WS020/24040KT FM220700 26013KT P6SM -SHRA OVC015 =